Ottoman Nobility — TCDA2 — position and weather

sailwx.info

Track history (hours):
 
Tides and Currents Weather Stations Pressure Air Temp Water Temp Dewpoint Dewpoint Depression Visibility Wind Speed Wind Dir Waves Ship Positions

Ottoman Nobility

Last reported at 2017-Nov-17 12:00 UTC. Time now 2017-Nov-18 14:21 UTC.
Position N 27°48' W 015°09'.

Length 269 m; draft 9 m.

Type: Ship. MMSI: 271000773.

Date/timePositionNaut miles runAvg speedWind from/ knotsBaromVisibWave heightAir tempDewpointWater temp
2017-Nov-17 12:00N 27°48' W 015°09'613.2
2017-Nov-17 11:30N 27°54' W 015°07'713.3
2017-Nov-17 11:00N 28°01' W 015°04'713.2
2017-Nov-17 10:30N 28°07' W 015°01'713.6
2017-Nov-17 10:00N 28°13' W 014°59'713.5
2017-Nov-17 09:30N 28°19' W 014°56'713.2
2017-Nov-17 09:00N 28°26' W 014°54'713.2
2017-Nov-17 08:30N 28°32' W 014°53'713.3
2017-Nov-17 07:59N 28°39' W 014°52'7513.5
2017-Nov-17 02:26N 29°53' W 014°36'  
2017-Nov-12 18:03N 49°48' W 003°29'114.0
2017-Nov-12 17:59N 49°48' W 003°28'713.7
2017-Nov-12 17:30N 49°51' W 003°19'713.4
2017-Nov-12 17:00N 49°55' W 003°10'613.0
2017-Nov-12 16:31N 49°58' W 003°01'713.1
2017-Nov-12 16:01N 50°01' W 002°52'612.5
2017-Nov-12 15:31N 50°02' W 002°43'2611.6
2017-Nov-12 13:14N 50°09' W 002°03'311.5
2017-Nov-12 13:00N 50°10' W 001°59'611.8
2017-Nov-12 12:29N 50°11' W 001°49'511.0
2017-Nov-12 12:00N 50°12' W 001°41'5 9.6
2017-Nov-12 11:30N 50°13' W 001°34'510.4
2017-Nov-12 11:00N 50°14' W 001°26'510.9
2017-Nov-12 10:31N 50°16' W 001°18'611.4
2017-Nov-12 10:00N 50°18' W 001°10'3012.6
2017-Nov-12 07:39N 50°26' W 000°25'214.6
2017-Nov-12 07:31N 50°27' W 000°22'714.3
2017-Nov-12 07:00N 50°29' W 000°11'714.1
2017-Nov-12 06:31N 50°30' W 000°00'713.7
2017-Nov-12 06:00N 50°32' E 000°10'713.8
2017-Nov-12 05:30N 50°34' E 000°20'713.6
2017-Nov-12 05:01N 50°36' E 000°31'713.2
2017-Nov-12 04:31N 50°39' E 000°40'713.5
2017-Nov-12 04:01N 50°43' E 000°49'713.5
2017-Nov-12 03:31N 50°46' E 000°58'713.8
2017-Nov-12 03:01N 50°50' E 001°07'714.3
2017-Nov-12 02:30N 50°54' E 001°17'815.5
2017-Nov-12 02:00N 50°60' E 001°24'816.2
2017-Nov-12 01:31N 51°06' E 001°33'816.2
2017-Nov-12 01:01N 51°11' E 001°43'815.5
2017-Nov-12 00:31N 51°18' E 001°49'714.8
2017-Nov-12 00:00N 51°24' E 001°55'714.1
2017-Nov-11 23:30N 51°30' E 002°02'713.8
2017-Nov-11 23:00N 51°35' E 002°09'713.4
2017-Nov-11 22:30N 51°40' E 002°17'713.0
2017-Nov-11 21:58N 51°45' E 002°24'4911.5
2017-Nov-11 17:41N 52°03' E 003°38'1 6.6
2017-Nov-11 17:30N 52°03' E 003°40'4 8.8
2017-Nov-11 17:00N 52°03' E 003°47'612.4
2017-Nov-11 16:30N 52°02' E 003°57'5 9.3
2017-Nov-11 16:00N 51°59' E 004°03'1 2.5
2017-Nov-11 15:30N 51°58' E 004°03'2 4.4
2017-Nov-11 15:00N 51°58' E 003°59'0 0.1
2017-Nov-11 14:00N 51°58' E 003°59'0 0.0
2017-Nov-11 13:30N 51°58' E 003°59'0 0.0
2017-Nov-11 13:00N 51°58' E 003°59'0 0.0
2017-Nov-11 12:30N 51°58' E 003°59'0 0.0
2017-Nov-11 12:00N 51°58' E 003°59'0 0.0
2017-Nov-11 11:30N 51°58' E 003°59'0 0.0
2017-Nov-11 11:00N 51°58' E 003°59'0 0.0
2017-Nov-11 10:30N 51°58' E 003°59'0 0.0
2017-Nov-11 10:00N 51°58' E 003°59'0 0.0
2017-Nov-11 09:30N 51°58' E 003°59'0 0.0
2017-Nov-11 09:00N 51°58' E 003°59'0 0.0
2017-Nov-11 08:30N 51°58' E 003°59'0 0.0
2017-Nov-11 08:00N 51°58' E 003°59'0 0.5
2017-Nov-11 07:30N 51°58' E 003°60'2 3.3
2017-Nov-11 07:00N 51°58' E 004°02'2 4.3
2017-Nov-11 06:30N 51°58' E 004°06'3 5.2
2017-Nov-11 06:00N 51°57' E 004°09'3 5.4
2017-Nov-11 05:30N 51°55' E 004°12'0 0.2
2017-Nov-11 05:00N 51°55' E 004°12'0 0.0
2017-Nov-11 04:30N 51°55' E 004°12'0 0.0
2017-Nov-11 04:00N 51°55' E 004°12'0 0.0
2017-Nov-11 03:30N 51°55' E 004°12'0 0.0
2017-Nov-11 03:00N 51°55' E 004°12'0 0.0
2017-Nov-11 02:30N 51°55' E 004°12'0 0.0
2017-Nov-11 02:00N 51°55' E 004°12'0 0.0
2017-Nov-11 01:30N 51°55' E 004°12'0 0.0
2017-Nov-11 00:57N 51°55' E 004°12'0 0.0
2017-Nov-11 00:30N 51°55' E 004°12'0 0.0
2017-Nov-11 00:00N 51°55' E 004°12'0 0.0
2017-Nov-10 23:30N 51°55' E 004°12'0 0.0
2017-Nov-10 23:00N 51°55' E 004°12'0 0.0
2017-Nov-10 22:30N 51°55' E 004°12'0 0.0
2017-Nov-10 22:00N 51°55' E 004°12'0 0.0
2017-Nov-10 21:30N 51°55' E 004°12'0 0.0
2017-Nov-10 20:54N 51°55' E 004°12'0 0.0
2017-Nov-10 20:30N 51°55' E 004°12'0 0.0
2017-Nov-10 19:57N 51°55' E 004°12'0 0.0
2017-Nov-10 19:27N 51°55' E 004°12'0 0.0
2017-Nov-10 19:00N 51°55' E 004°12'0 0.0
2017-Nov-10 18:30N 51°55' E 004°12'0 0.0
2017-Nov-10 18:00N 51°55' E 004°12'0 0.0
2017-Nov-10 17:30N 51°55' E 004°12'0 0.0
2017-Nov-10 17:00N 51°55' E 004°12'0 0.0
2017-Nov-10 16:30N 51°55' E 004°12'0 0.0
2017-Nov-10 15:54N 51°55' E 004°12'0 0.0
2017-Nov-10 15:24N 51°55' E 004°12'0 0.0
2017-Nov-10 15:00N 51°55' E 004°12'0 0.0
2017-Nov-10 14:30N 51°55' E 004°12'0 0.0
2017-Nov-10 13:57N 51°55' E 004°12'0 0.0
2017-Nov-10 13:30N 51°55' E 004°12'0 0.0
2017-Nov-10 12:51N 51°55' E 004°12'0 0.0
2017-Nov-10 12:24N 51°55' E 004°12'0 0.0
2017-Nov-10 12:00N 51°55' E 004°12'0 0.0
2017-Nov-10 11:27N 51°55' E 004°12'0 0.0
2017-Nov-10 11:00N 51°55' E 004°12'0 0.0
2017-Nov-10 10:21N 51°55' E 004°12'0 0.0
2017-Nov-10 10:00N 51°55' E 004°12'0 0.0
2017-Nov-10 09:30N 51°55' E 004°12'0 0.0
2017-Nov-10 09:00N 51°55' E 004°12'0 0.0
2017-Nov-10 08:30N 51°55' E 004°12'0 0.0
2017-Nov-10 07:54N 51°55' E 004°12'0 0.0
2017-Nov-10 07:30N 51°55' E 004°12'0 0.0
2017-Nov-10 06:57N 51°55' E 004°12'0 0.0
2017-Nov-10 06:30N 51°55' E 004°12'0 0.0
2017-Nov-10 06:00N 51°55' E 004°12'0 0.0
2017-Nov-10 05:24N 51°55' E 004°12'0 0.0
2017-Nov-10 05:00N 51°55' E 004°12'0 0.0
2017-Nov-10 04:30N 51°55' E 004°12'0 0.0
2017-Nov-10 04:00N 51°55' E 004°12'0 0.0
2017-Nov-10 03:30N 51°55' E 004°12'0 0.0
2017-Nov-10 03:00N 51°55' E 004°12'0 0.0
2017-Nov-10 02:15N 51°55' E 004°12'0 0.0
2017-Nov-10 02:00N 51°55' E 004°12'0 0.0
2017-Nov-10 01:30N 51°55' E 004°12'0 0.0
2017-Nov-10 01:00N 51°55' E 004°12'0 0.0
2017-Nov-10 00:30N 51°55' E 004°12'0 0.0
2017-Nov-09 23:57N 51°55' E 004°12'0 0.0
2017-Nov-09 23:27N 51°55' E 004°12'0 0.0
2017-Nov-09 22:54N 51°55' E 004°12'0 0.0
2017-Nov-09 22:30N 51°55' E 004°12'0 0.0
2017-Nov-09 22:00N 51°55' E 004°12'0 0.0
2017-Nov-09 21:15N 51°55' E 004°12'0 0.0
2017-Nov-09 21:00N 51°55' E 004°12'0 0.0
2017-Nov-09 20:30N 51°55' E 004°12'0 0.0
2017-Nov-09 20:00N 51°55' E 004°12'0 0.0
2017-Nov-09 19:30N 51°55' E 004°12'0 0.0
2017-Nov-09 19:00N 51°55' E 004°12'0 0.0
2017-Nov-09 18:30N 51°55' E 004°12'0 0.0
2017-Nov-09 17:57N 51°55' E 004°12'0 0.0
2017-Nov-09 17:18N 51°55' E 004°12'0 0.0
2017-Nov-09 16:57N 51°55' E 004°12'0 0.0
2017-Nov-09 16:30N 51°55' E 004°12'0 0.0
2017-Nov-09 15:57N 51°55' E 004°12'0 0.0
2017-Nov-09 15:27N 51°55' E 004°12'0 0.0
2017-Nov-09 15:00N 51°55' E 004°12'0 0.0
2017-Nov-09 14:18N 51°55' E 004°12'0 0.0
2017-Nov-09 13:57N 51°55' E 004°12'0 0.0
2017-Nov-09 13:30N 51°55' E 004°12'0 0.0
2017-Nov-09 13:00N 51°55' E 004°12'0 0.0
2017-Nov-09 12:30N 51°55' E 004°12'0 0.0
2017-Nov-09 12:00N 51°55' E 004°12'0 0.0
2017-Nov-09 11:30N 51°55' E 004°12'0 0.0
2017-Nov-09 10:54N 51°55' E 004°12'0 0.0
2017-Nov-09 10:30N 51°55' E 004°12'0 0.0
2017-Nov-09 09:57N 51°55' E 004°12'0 0.0
2017-Nov-09 09:30N 51°55' E 004°12'0 0.0
2017-Nov-09 08:54N 51°55' E 004°12'0 0.0
2017-Nov-09 08:27N 51°55' E 004°12'0 0.0
2017-Nov-09 08:00N 51°55' E 004°12'0 0.0
2017-Nov-09 07:30N 51°55' E 004°12'0 0.0
2017-Nov-09 06:57N 51°55' E 004°12'0 0.0
2017-Nov-09 06:30N 51°55' E 004°12'0 0.0
2017-Nov-09 05:48N 51°55' E 004°12'0 0.0
2017-Nov-09 05:30N 51°55' E 004°12'0 0.0
2017-Nov-09 04:57N 51°55' E 004°12'0 0.0
2017-Nov-09 04:27N 51°55' E 004°12'0 0.0
2017-Nov-09 04:00N 51°55' E 004°12'0 0.0
2017-Nov-09 03:03N 51°55' E 004°12'0 0.0
2017-Nov-09 02:57N 51°55' E 004°12'0 0.0
2017-Nov-09 02:21N 51°55' E 004°12'0 0.0
2017-Nov-09 01:57N 51°55' E 004°12'0 0.0
2017-Nov-09 01:30N 51°55' E 004°12'0 0.0
2017-Nov-09 00:54N 51°55' E 004°12'0 0.0
2017-Nov-09 00:15N 51°55' E 004°12'0 0.0
2017-Nov-08 23:57N 51°55' E 004°12'0 0.0
2017-Nov-08 23:30N 51°55' E 004°12'0 0.0
2017-Nov-08 23:00N 51°55' E 004°12'0 0.0
2017-Nov-08 22:27N 51°55' E 004°12'0 0.0
2017-Nov-08 21:54N 51°55' E 004°12'0 0.0
2017-Nov-08 21:21N 51°55' E 004°12'0 0.0
2017-Nov-08 21:00N 51°55' E 004°12'0 0.0
2017-Nov-08 20:27N 51°55' E 004°12'0 0.0
2017-Nov-08 19:45N 51°55' E 004°12'0 0.0
2017-Nov-08 19:24N 51°55' E 004°12'0 0.0
2017-Nov-08 19:00N 51°55' E 004°12'0 0.0
2017-Nov-08 18:15N 51°55' E 004°12'0 0.0
2017-Nov-08 17:54N 51°55' E 004°12'0 0.0
2017-Nov-08 17:30N 51°55' E 004°12'0 0.0
2017-Nov-08 17:00N 51°55' E 004°12'0 0.0
2017-Nov-08 16:24N 51°55' E 004°12'0 0.0
2017-Nov-08 16:00N 51°55' E 004°12'0 0.0
2017-Nov-08 15:18N 51°55' E 004°12'0 0.0
2017-Nov-08 15:00N 51°55' E 004°12'0 0.0
2017-Nov-08 14:24N 51°55' E 004°12'0 0.0
2017-Nov-08 13:57N 51°55' E 004°12'0 0.0
2017-Nov-08 13:27N 51°55' E 004°12'0 0.0
2017-Nov-08 13:00N 51°55' E 004°12'0 0.0
2017-Nov-08 12:30N 51°55' E 004°12'0 0.0
2017-Nov-08 12:00N 51°55' E 004°12'0 0.0
2017-Nov-08 11:12N 51°55' E 004°12'0 0.0
2017-Nov-08 11:00N 51°55' E 004°12'0 0.0
2017-Nov-08 10:30N 51°55' E 004°12'0 0.0
2017-Nov-08 09:54N 51°55' E 004°12'0 0.0
2017-Nov-08 09:30N 51°55' E 004°12'0 0.0
2017-Nov-08 08:54N 51°55' E 004°12'0 0.0
2017-Nov-08 08:21N 51°55' E 004°12'0 0.0
2017-Nov-08 08:00N 51°55' E 004°12'0 0.3
2017-Nov-08 07:31N 51°55' E 004°12'1 2.0
2017-Nov-08 07:01N 51°56' E 004°11'2 4.7
2017-Nov-08 06:30N 51°57' E 004°08'4 7.1
2017-Nov-08 06:00N 51°59' E 004°03'4 8.5
2017-Nov-08 05:30N 52°01' E 003°57'611.7
2017-Nov-08 05:00N 52°01' E 003°47'4 7.1
2017-Nov-08 04:30N 52°01' E 003°42'5 9.0
2017-Nov-08 03:59N 51°58' E 003°36'4 8.3
2017-Nov-08 03:28N 51°56' E 003°31'1 1.1
2017-Nov-08 02:45N 51°55' E 003°31'0 0.1
2017-Nov-08 00:50N 51°55' E 003°30'0 0.0
2017-Nov-07 23:21N 51°55' E 003°30'0 0.1
2017-Nov-07 18:09N 51°55' E 003°31'0 0.0
2017-Nov-07 17:48N 51°55' E 003°31'0 0.0
2017-Nov-07 17:27N 51°55' E 003°31'0 0.0
2017-Nov-07 17:00N 51°55' E 003°31'0 0.0
2017-Nov-07 16:30N 51°55' E 003°31'0 0.0
2017-Nov-07 16:00N 51°55' E 003°31'  
Track history (hours):
 
Tides and Currents Weather Stations Pressure Air Temp Water Temp Dewpoint Dewpoint Depression Visibility Wind Speed Wind Dir Waves Ship Positions

Ottoman Nobility

Last reported at 2017-Nov-17 12:00 UTC. Time now 2017-Nov-18 14:21 UTC.
Position N 27°48' W 015°09'.

Length 269 m; draft 9 m.

Type: Ship. MMSI: 271000773.

Date/timePositionNaut miles runAvg speedWind from/ knotsBaromVisibWave heightAir tempDewpointWater temp
2017-Nov-17 12:00N 27°48' W 015°09'613.2
2017-Nov-17 11:30N 27°54' W 015°07'713.3
2017-Nov-17 11:00N 28°01' W 015°04'713.2
2017-Nov-17 10:30N 28°07' W 015°01'713.6
2017-Nov-17 10:00N 28°13' W 014°59'713.5
2017-Nov-17 09:30N 28°19' W 014°56'713.2
2017-Nov-17 09:00N 28°26' W 014°54'713.2
2017-Nov-17 08:30N 28°32' W 014°53'713.3
2017-Nov-17 07:59N 28°39' W 014°52'7513.5
2017-Nov-17 02:26N 29°53' W 014°36'  
2017-Nov-12 18:03N 49°48' W 003°29'114.0
2017-Nov-12 17:59N 49°48' W 003°28'713.7
2017-Nov-12 17:30N 49°51' W 003°19'713.4
2017-Nov-12 17:00N 49°55' W 003°10'613.0
2017-Nov-12 16:31N 49°58' W 003°01'713.1
2017-Nov-12 16:01N 50°01' W 002°52'612.5
2017-Nov-12 15:31N 50°02' W 002°43'2611.6
2017-Nov-12 13:14N 50°09' W 002°03'311.5
2017-Nov-12 13:00N 50°10' W 001°59'611.8
2017-Nov-12 12:29N 50°11' W 001°49'511.0
2017-Nov-12 12:00N 50°12' W 001°41'5 9.6
2017-Nov-12 11:30N 50°13' W 001°34'510.4
2017-Nov-12 11:00N 50°14' W 001°26'510.9
2017-Nov-12 10:31N 50°16' W 001°18'611.4
2017-Nov-12 10:00N 50°18' W 001°10'3012.6
2017-Nov-12 07:39N 50°26' W 000°25'214.6
2017-Nov-12 07:31N 50°27' W 000°22'714.3
2017-Nov-12 07:00N 50°29' W 000°11'714.1
2017-Nov-12 06:31N 50°30' W 000°00'713.7
2017-Nov-12 06:00N 50°32' E 000°10'713.8
2017-Nov-12 05:30N 50°34' E 000°20'713.6
2017-Nov-12 05:01N 50°36' E 000°31'713.2
2017-Nov-12 04:31N 50°39' E 000°40'713.5
2017-Nov-12 04:01N 50°43' E 000°49'713.5
2017-Nov-12 03:31N 50°46' E 000°58'713.8
2017-Nov-12 03:01N 50°50' E 001°07'714.3
2017-Nov-12 02:30N 50°54' E 001°17'815.5
2017-Nov-12 02:00N 50°60' E 001°24'816.2
2017-Nov-12 01:31N 51°06' E 001°33'816.2
2017-Nov-12 01:01N 51°11' E 001°43'815.5
2017-Nov-12 00:31N 51°18' E 001°49'714.8
2017-Nov-12 00:00N 51°24' E 001°55'714.1
2017-Nov-11 23:30N 51°30' E 002°02'713.8
2017-Nov-11 23:00N 51°35' E 002°09'713.4
2017-Nov-11 22:30N 51°40' E 002°17'713.0
2017-Nov-11 21:58N 51°45' E 002°24'4911.5
2017-Nov-11 17:41N 52°03' E 003°38'1 6.6
2017-Nov-11 17:30N 52°03' E 003°40'4 8.8
2017-Nov-11 17:00N 52°03' E 003°47'612.4
2017-Nov-11 16:30N 52°02' E 003°57'5 9.3
2017-Nov-11 16:00N 51°59' E 004°03'1 2.5
2017-Nov-11 15:30N 51°58' E 004°03'2 4.4
2017-Nov-11 15:00N 51°58' E 003°59'0 0.1
2017-Nov-11 14:00N 51°58' E 003°59'0 0.0
2017-Nov-11 13:30N 51°58' E 003°59'0 0.0
2017-Nov-11 13:00N 51°58' E 003°59'0 0.0
2017-Nov-11 12:30N 51°58' E 003°59'0 0.0
2017-Nov-11 12:00N 51°58' E 003°59'0 0.0
2017-Nov-11 11:30N 51°58' E 003°59'0 0.0
2017-Nov-11 11:00N 51°58' E 003°59'0 0.0
2017-Nov-11 10:30N 51°58' E 003°59'0 0.0
2017-Nov-11 10:00N 51°58' E 003°59'0 0.0
2017-Nov-11 09:30N 51°58' E 003°59'0 0.0
2017-Nov-11 09:00N 51°58' E 003°59'0 0.0
2017-Nov-11 08:30N 51°58' E 003°59'0 0.0
2017-Nov-11 08:00N 51°58' E 003°59'0 0.5
2017-Nov-11 07:30N 51°58' E 003°60'2 3.3
2017-Nov-11 07:00N 51°58' E 004°02'2 4.3
2017-Nov-11 06:30N 51°58' E 004°06'3 5.2
2017-Nov-11 06:00N 51°57' E 004°09'3 5.4
2017-Nov-11 05:30N 51°55' E 004°12'0 0.2
2017-Nov-11 05:00N 51°55' E 004°12'0 0.0
2017-Nov-11 04:30N 51°55' E 004°12'0 0.0
2017-Nov-11 04:00N 51°55' E 004°12'0 0.0
2017-Nov-11 03:30N 51°55' E 004°12'0 0.0
2017-Nov-11 03:00N 51°55' E 004°12'0 0.0
2017-Nov-11 02:30N 51°55' E 004°12'0 0.0
2017-Nov-11 02:00N 51°55' E 004°12'0 0.0
2017-Nov-11 01:30N 51°55' E 004°12'0 0.0
2017-Nov-11 00:57N 51°55' E 004°12'0 0.0
2017-Nov-11 00:30N 51°55' E 004°12'0 0.0
2017-Nov-11 00:00N 51°55' E 004°12'0 0.0
2017-Nov-10 23:30N 51°55' E 004°12'0 0.0
2017-Nov-10 23:00N 51°55' E 004°12'0 0.0
2017-Nov-10 22:30N 51°55' E 004°12'0 0.0
2017-Nov-10 22:00N 51°55' E 004°12'0 0.0
2017-Nov-10 21:30N 51°55' E 004°12'0 0.0
2017-Nov-10 20:54N 51°55' E 004°12'0 0.0
2017-Nov-10 20:30N 51°55' E 004°12'0 0.0
2017-Nov-10 19:57N 51°55' E 004°12'0 0.0
2017-Nov-10 19:27N 51°55' E 004°12'0 0.0
2017-Nov-10 19:00N 51°55' E 004°12'0 0.0
2017-Nov-10 18:30N 51°55' E 004°12'0 0.0
2017-Nov-10 18:00N 51°55' E 004°12'0 0.0
2017-Nov-10 17:30N 51°55' E 004°12'0 0.0
2017-Nov-10 17:00N 51°55' E 004°12'0 0.0
2017-Nov-10 16:30N 51°55' E 004°12'0 0.0
2017-Nov-10 15:54N 51°55' E 004°12'0 0.0
2017-Nov-10 15:24N 51°55' E 004°12'0 0.0
2017-Nov-10 15:00N 51°55' E 004°12'0 0.0
2017-Nov-10 14:30N 51°55' E 004°12'0 0.0
2017-Nov-10 13:57N 51°55' E 004°12'0 0.0
2017-Nov-10 13:30N 51°55' E 004°12'0 0.0
2017-Nov-10 12:51N 51°55' E 004°12'0 0.0
2017-Nov-10 12:24N 51°55' E 004°12'0 0.0
2017-Nov-10 12:00N 51°55' E 004°12'0 0.0
2017-Nov-10 11:27N 51°55' E 004°12'0 0.0
2017-Nov-10 11:00N 51°55' E 004°12'0 0.0
2017-Nov-10 10:21N 51°55' E 004°12'0 0.0
2017-Nov-10 10:00N 51°55' E 004°12'0 0.0
2017-Nov-10 09:30N 51°55' E 004°12'0 0.0
2017-Nov-10 09:00N 51°55' E 004°12'0 0.0
2017-Nov-10 08:30N 51°55' E 004°12'0 0.0
2017-Nov-10 07:54N 51°55' E 004°12'0 0.0
2017-Nov-10 07:30N 51°55' E 004°12'0 0.0
2017-Nov-10 06:57N 51°55' E 004°12'0 0.0
2017-Nov-10 06:30N 51°55' E 004°12'0 0.0
2017-Nov-10 06:00N 51°55' E 004°12'0 0.0
2017-Nov-10 05:24N 51°55' E 004°12'0 0.0
2017-Nov-10 05:00N 51°55' E 004°12'0 0.0
2017-Nov-10 04:30N 51°55' E 004°12'0 0.0
2017-Nov-10 04:00N 51°55' E 004°12'0 0.0
2017-Nov-10 03:30N 51°55' E 004°12'0 0.0
2017-Nov-10 03:00N 51°55' E 004°12'0 0.0
2017-Nov-10 02:15N 51°55' E 004°12'0 0.0
2017-Nov-10 02:00N 51°55' E 004°12'0 0.0
2017-Nov-10 01:30N 51°55' E 004°12'0 0.0
2017-Nov-10 01:00N 51°55' E 004°12'0 0.0
2017-Nov-10 00:30N 51°55' E 004°12'0 0.0
2017-Nov-09 23:57N 51°55' E 004°12'0 0.0
2017-Nov-09 23:27N 51°55' E 004°12'0 0.0
2017-Nov-09 22:54N 51°55' E 004°12'0 0.0
2017-Nov-09 22:30N 51°55' E 004°12'0 0.0
2017-Nov-09 22:00N 51°55' E 004°12'0 0.0
2017-Nov-09 21:15N 51°55' E 004°12'0 0.0
2017-Nov-09 21:00N 51°55' E 004°12'0 0.0
2017-Nov-09 20:30N 51°55' E 004°12'0 0.0
2017-Nov-09 20:00N 51°55' E 004°12'0 0.0
2017-Nov-09 19:30N 51°55' E 004°12'0 0.0
2017-Nov-09 19:00N 51°55' E 004°12'0 0.0
2017-Nov-09 18:30N 51°55' E 004°12'0 0.0
2017-Nov-09 17:57N 51°55' E 004°12'0 0.0
2017-Nov-09 17:18N 51°55' E 004°12'0 0.0
2017-Nov-09 16:57N 51°55' E 004°12'0 0.0
2017-Nov-09 16:30N 51°55' E 004°12'0 0.0
2017-Nov-09 15:57N 51°55' E 004°12'0 0.0
2017-Nov-09 15:27N 51°55' E 004°12'0 0.0
2017-Nov-09 15:00N 51°55' E 004°12'0 0.0
2017-Nov-09 14:18N 51°55' E 004°12'0 0.0
2017-Nov-09 13:57N 51°55' E 004°12'0 0.0
2017-Nov-09 13:30N 51°55' E 004°12'0 0.0
2017-Nov-09 13:00N 51°55' E 004°12'0 0.0
2017-Nov-09 12:30N 51°55' E 004°12'0 0.0
2017-Nov-09 12:00N 51°55' E 004°12'0 0.0
2017-Nov-09 11:30N 51°55' E 004°12'0 0.0
2017-Nov-09 10:54N 51°55' E 004°12'0 0.0
2017-Nov-09 10:30N 51°55' E 004°12'0 0.0
2017-Nov-09 09:57N 51°55' E 004°12'0 0.0
2017-Nov-09 09:30N 51°55' E 004°12'0 0.0
2017-Nov-09 08:54N 51°55' E 004°12'0 0.0
2017-Nov-09 08:27N 51°55' E 004°12'0 0.0
2017-Nov-09 08:00N 51°55' E 004°12'0 0.0
2017-Nov-09 07:30N 51°55' E 004°12'0 0.0
2017-Nov-09 06:57N 51°55' E 004°12'0 0.0
2017-Nov-09 06:30N 51°55' E 004°12'0 0.0
2017-Nov-09 05:48N 51°55' E 004°12'0 0.0
2017-Nov-09 05:30N 51°55' E 004°12'0 0.0
2017-Nov-09 04:57N 51°55' E 004°12'0 0.0
2017-Nov-09 04:27N 51°55' E 004°12'0 0.0
2017-Nov-09 04:00N 51°55' E 004°12'0 0.0
2017-Nov-09 03:03N 51°55' E 004°12'0 0.0
2017-Nov-09 02:57N 51°55' E 004°12'0 0.0
2017-Nov-09 02:21N 51°55' E 004°12'0 0.0
2017-Nov-09 01:57N 51°55' E 004°12'0 0.0
2017-Nov-09 01:30N 51°55' E 004°12'0 0.0
2017-Nov-09 00:54N 51°55' E 004°12'0 0.0
2017-Nov-09 00:15N 51°55' E 004°12'0 0.0
2017-Nov-08 23:57N 51°55' E 004°12'0 0.0
2017-Nov-08 23:30N 51°55' E 004°12'0 0.0
2017-Nov-08 23:00N 51°55' E 004°12'0 0.0
2017-Nov-08 22:27N 51°55' E 004°12'0 0.0
2017-Nov-08 21:54N 51°55' E 004°12'0 0.0
2017-Nov-08 21:21N 51°55' E 004°12'0 0.0
2017-Nov-08 21:00N 51°55' E 004°12'0 0.0
2017-Nov-08 20:27N 51°55' E 004°12'0 0.0
2017-Nov-08 19:45N 51°55' E 004°12'0 0.0
2017-Nov-08 19:24N 51°55' E 004°12'0 0.0
2017-Nov-08 19:00N 51°55' E 004°12'0 0.0
2017-Nov-08 18:15N 51°55' E 004°12'0 0.0
2017-Nov-08 17:54N 51°55' E 004°12'0 0.0
2017-Nov-08 17:30N 51°55' E 004°12'0 0.0
2017-Nov-08 17:00N 51°55' E 004°12'0 0.0
2017-Nov-08 16:24N 51°55' E 004°12'0 0.0
2017-Nov-08 16:00N 51°55' E 004°12'0 0.0
2017-Nov-08 15:18N 51°55' E 004°12'0 0.0
2017-Nov-08 15:00N 51°55' E 004°12'0 0.0
2017-Nov-08 14:24N 51°55' E 004°12'0 0.0
2017-Nov-08 13:57N 51°55' E 004°12'0 0.0
2017-Nov-08 13:27N 51°55' E 004°12'0 0.0
2017-Nov-08 13:00N 51°55' E 004°12'0 0.0
2017-Nov-08 12:30N 51°55' E 004°12'0 0.0
2017-Nov-08 12:00N 51°55' E 004°12'0 0.0
2017-Nov-08 11:12N 51°55' E 004°12'0 0.0
2017-Nov-08 11:00N 51°55' E 004°12'0 0.0
2017-Nov-08 10:30N 51°55' E 004°12'0 0.0
2017-Nov-08 09:54N 51°55' E 004°12'0 0.0
2017-Nov-08 09:30N 51°55' E 004°12'0 0.0
2017-Nov-08 08:54N 51°55' E 004°12'0 0.0
2017-Nov-08 08:21N 51°55' E 004°12'0 0.0
2017-Nov-08 08:00N 51°55' E 004°12'0 0.3
2017-Nov-08 07:31N 51°55' E 004°12'1 2.0
2017-Nov-08 07:01N 51°56' E 004°11'2 4.7
2017-Nov-08 06:30N 51°57' E 004°08'4 7.1
2017-Nov-08 06:00N 51°59' E 004°03'4 8.5
2017-Nov-08 05:30N 52°01' E 003°57'611.7
2017-Nov-08 05:00N 52°01' E 003°47'4 7.1
2017-Nov-08 04:30N 52°01' E 003°42'5 9.0
2017-Nov-08 03:59N 51°58' E 003°36'4 8.3
2017-Nov-08 03:28N 51°56' E 003°31'1 1.1
2017-Nov-08 02:45N 51°55' E 003°31'0 0.1
2017-Nov-08 00:50N 51°55' E 003°30'0 0.0
2017-Nov-07 23:21N 51°55' E 003°30'0 0.1
2017-Nov-07 18:09N 51°55' E 003°31'0 0.0
2017-Nov-07 17:48N 51°55' E 003°31'0 0.0
2017-Nov-07 17:27N 51°55' E 003°31'0 0.0
2017-Nov-07 17:00N 51°55' E 003°31'0 0.0
2017-Nov-07 16:30N 51°55' E 003°31'0 0.0
2017-Nov-07 16:00N 51°55' E 003°31'  

Dump ship's entire track history